Time;durP1;ratioP1;P1;durP2;ratioP2;P2;SDS_P1;SDS_P2;PMS_P1;PMS_P2;Temp;Humidity;BMP_temperature;BMP_pressure;BME280_temperature;BME280_humidity;BME280_pressure;Samples;Min_cycle;Max_cycle;Signal;HPM_P1;HPM_P2
2021/06/06 00:01:09;;;;;;;32.23;17.40;;;17.50;99.80;;;;;;6197549;23;20439;-82
2021/06/06 00:03:41;;;;;;;33.53;18.67;;;17.50;99.80;;;;;;6206921;23;20470;-83
2021/06/06 00:06:12;;;;;;;34.60;19.03;;;17.40;99.80;;;;;;6196201;23;20450;-82
2021/06/06 00:08:40;;;;;;;35.37;17.90;;;17.50;99.80;;;;;;6206148;23;20489;-83
2021/06/06 00:11:11;;;;;;;37.40;18.73;;;17.50;99.80;;;;;;6205582;23;20784;-83
2021/06/06 00:13:40;;;;;;;37.47;19.97;;;17.50;99.80;;;;;;6195964;23;20997;-83
2021/06/06 00:16:13;;;;;;;31.90;17.87;;;17.50;99.80;;;;;;6205442;23;20446;-82
2021/06/06 00:18:41;;;;;;;38.97;19.83;;;17.50;99.80;;;;;;6198913;23;20435;-82
2021/06/06 00:21:08;;;;;;;29.73;17.40;;;17.40;99.80;;;;;;6190778;23;20885;-83
2021/06/06 00:23:36;;;;;;;38.93;19.30;;;17.40;99.80;;;;;;6204967;23;20432;-83
2021/06/06 00:26:05;;;;;;;34.67;19.27;;;17.40;99.80;;;;;;6204978;23;20436;-83
2021/06/06 00:28:34;;;;;;;39.70;21.03;;;17.40;99.80;;;;;;6198989;23;21214;-84
2021/06/06 00:31:03;;;;;;;47.73;20.57;;;;;;;;;;6200644;23;20452;-83
2021/06/06 00:33:31;;;;;;;204.93;100.30;;;17.50;99.80;;;;;;6184747;23;20376;-83
2021/06/06 00:35:59;;;;;;;40.00;20.97;;;17.50;99.80;;;;;;6197247;23;20208;-83
2021/06/06 00:38:26;;;;;;;39.97;20.60;;;17.40;99.80;;;;;;6190031;23;20443;-83
2021/06/06 00:40:57;;;;;;;44.00;21.07;;;17.50;99.80;;;;;;6191379;23;20488;-83
2021/06/06 00:43:25;;;;;;;38.50;20.30;;;17.40;99.80;;;;;;6198159;23;20951;-83
2021/06/06 00:45:54;;;;;;;36.87;19.87;;;17.40;99.80;;;;;;6195762;23;20454;-83
2021/06/06 00:48:22;;;;;;;45.30;22.27;;;17.40;99.80;;;;;;6193413;23;20443;-83
2021/06/06 00:50:52;;;;;;;39.30;20.80;;;17.50;99.80;;;;;;6199166;23;20440;-83
2021/06/06 00:53:27;;;;;;;45.87;22.37;;;17.50;99.80;;;;;;6201658;23;20428;-83
2021/06/06 00:55:54;;;;;;;44.07;19.57;;;17.40;99.80;;;;;;6206203;23;20442;-83
2021/06/06 00:58:23;;;;;;;42.13;21.87;;;17.50;99.80;;;;;;6206011;23;21134;-83
2021/06/06 01:00:52;;;;;;;42.33;21.60;;;17.50;99.80;;;;;;6134952;23;20821;-83
2021/06/06 01:03:23;;;;;;;49.20;23.20;;;17.40;99.80;;;;;;6198533;23;20893;-83
2021/06/06 01:05:55;;;;;;;42.43;23.33;;;17.40;99.80;;;;;;6199923;23;20431;-83
2021/06/06 01:08:23;;;;;;;49.60;22.77;;;17.40;99.80;;;;;;6194402;23;21004;-83
2021/06/06 01:11:12;;;;;;;39.00;22.07;;;17.40;99.80;;;;;;6198801;23;21326;-83
2021/06/06 01:13:43;;;;;;;44.60;20.23;;;17.40;99.80;;;;;;6187238;23;20435;-83
2021/06/06 01:16:16;;;;;;;42.63;21.20;;;17.50;99.80;;;;;;6197402;23;20469;-83
2021/06/06 01:18:49;;;;;;;50.43;22.57;;;17.50;99.80;;;;;;6190025;23;20448;-83
2021/06/06 01:21:24;;;;;;;46.70;23.57;;;17.50;99.80;;;;;;6193235;23;20443;-83
2021/06/06 01:24:18;;;;;;;46.20;25.53;;;17.50;99.80;;;;;;6200411;23;20443;-83
2021/06/06 01:26:49;;;;;;;54.50;25.67;;;17.40;99.80;;;;;;6202830;23;20428;-83
2021/06/06 01:29:30;;;;;;;43.80;23.30;;;17.40;99.80;;;;;;6201171;23;20439;-83
2021/06/06 01:32:02;;;;;;;59.67;28.50;;;17.40;99.80;;;;;;6197236;23;20952;-83
2021/06/06 01:34:32;;;;;;;50.23;25.67;;;17.40;99.80;;;;;;6190822;23;20470;-83
2021/06/06 01:37:02;;;;;;;59.07;28.17;;;17.40;99.80;;;;;;6197322;23;20438;-83
2021/06/06 01:39:34;;;;;;;58.30;28.87;;;17.30;99.80;;;;;;6202702;23;20434;-83
2021/06/06 01:42:07;;;;;;;55.90;29.27;;;17.40;99.80;;;;;;6186927;23;21036;-83
2021/06/06 01:44:36;;;;;;;52.80;28.23;;;17.40;99.80;;;;;;6196201;23;20439;-83
2021/06/06 01:47:08;;;;;;;56.07;28.70;;;17.30;99.80;;;;;;6187186;23;20439;-83
2021/06/06 01:49:43;;;;;;;51.20;27.00;;;17.30;99.80;;;;;;6153090;23;20448;-83
2021/06/06 01:52:12;;;;;;;54.23;29.20;;;17.30;99.80;;;;;;6196588;23;20438;-83
2021/06/06 01:54:41;;;;;;;55.90;27.90;;;17.30;99.80;;;;;;6205648;23;20435;-83
2021/06/06 01:57:13;;;;;;;50.20;26.57;;;17.30;99.80;;;;;;6204443;23;20439;-83
2021/06/06 01:59:43;;;;;;;47.53;26.07;;;17.30;99.80;;;;;;6186292;23;20443;-83
2021/06/06 02:02:11;;;;;;;49.10;28.57;;;17.30;99.80;;;;;;6210121;23;20419;-83
2021/06/06 02:04:39;;;;;;;44.30;25.03;;;17.30;99.80;;;;;;6210837;23;20407;-83
2021/06/06 02:07:11;;;;;;;45.70;26.80;;;17.30;99.80;;;;;;6210859;23;20427;-83
2021/06/06 02:09:45;;;;;;;48.97;26.80;;;17.30;99.80;;;;;;6210260;23;20435;-83
2021/06/06 02:12:12;;;;;;;51.70;27.20;;;17.30;99.80;;;;;;6211815;23;20395;-83
2021/06/06 02:14:42;;;;;;;51.43;28.17;;;17.30;99.80;;;;;;6212975;23;20436;-83
2021/06/06 02:17:14;;;;;;;52.37;27.30;;;17.20;99.80;;;;;;6212444;23;20748;-83
2021/06/06 02:19:43;;;;;;;58.60;29.20;;;17.20;99.80;;;;;;6148223;23;20499;-83
2021/06/06 02:22:13;;;;;;;58.83;30.80;;;17.20;99.80;;;;;;6174414;23;20435;-84
2021/06/06 02:24:43;;;;;;;54.90;29.13;;;17.20;99.80;;;;;;6205246;23;20448;-84
2021/06/06 02:27:16;;;;;;;57.13;29.97;;;17.20;99.80;;;;;;6199700;23;20774;-84
2021/06/06 02:29:56;;;;;;;60.90;31.30;;;17.20;99.80;;;;;;6195652;23;21266;-83
2021/06/06 02:32:32;;;;;;;66.47;32.63;;;17.20;99.80;;;;;;6199658;23;20431;-83
2021/06/06 02:35:08;;;;;;;67.90;32.97;;;17.10;99.80;;;;;;6201231;23;20501;-84
2021/06/06 02:37:43;;;;;;;60.17;33.23;;;17.10;99.80;;;;;;6201262;22;20435;-84
2021/06/06 02:40:18;;;;;;;67.47;35.07;;;17.10;99.80;;;;;;6229288;22;20428;-84
2021/06/06 02:42:46;;;;;;;68.17;35.03;;;17.10;99.80;;;;;;6195278;22;20445;-83
2021/06/06 02:45:19;;;;;;;68.07;35.03;;;17.10;99.80;;;;;;6196613;22;20434;-83
2021/06/06 02:47:49;;;;;;;67.53;34.40;;;17.10;99.80;;;;;;6187292;22;20502;-83
2021/06/06 02:50:21;;;;;;;66.87;34.50;;;17.10;99.80;;;;;;6192995;22;20454;-84
2021/06/06 02:52:53;;;;;;;71.83;34.60;;;17.10;99.80;;;;;;6197653;22;20984;-83
2021/06/06 02:55:25;;;;;;;75.13;34.67;;;17.00;99.80;;;;;;6206482;22;21048;-84
2021/06/06 02:57:56;;;;;;;72.30;34.90;;;17.00;99.80;;;;;;6205741;22;20443;-83
2021/06/06 03:00:30;;;;;;;75.97;35.03;;;17.00;99.80;;;;;;6186034;22;20968;-83
2021/06/06 03:03:03;;;;;;;78.30;38.03;;;17.00;99.80;;;;;;6197239;22;20534;-83
2021/06/06 03:05:32;;;;;;;79.27;36.43;;;17.00;99.80;;;;;;6184209;22;20434;-83
2021/06/06 03:08:01;;;;;;;77.10;35.77;;;17.00;99.80;;;;;;6204363;22;20442;-84
2021/06/06 03:10:33;;;;;;;72.13;34.00;;;17.00;99.80;;;;;;6220853;22;20441;-83
2021/06/06 03:13:07;;;;;;;69.87;33.40;;;16.90;99.80;;;;;;6222590;23;20430;-84
2021/06/06 03:15:39;;;;;;;76.50;37.47;;;17.00;99.80;;;;;;6228739;23;20441;-84
2021/06/06 03:18:09;;;;;;;77.23;35.50;;;17.00;99.80;;;;;;6215849;23;20472;-83
2021/06/06 03:20:40;;;;;;;78.57;37.03;;;16.90;99.80;;;;;;6230376;22;20449;-83
2021/06/06 03:23:10;;;;;;;70.33;33.80;;;16.90;99.80;;;;;;6213172;23;20930;-84
2021/06/06 03:25:43;;;;;;;79.30;36.17;;;16.90;99.80;;;;;;6234626;23;20438;-83
2021/06/06 03:28:13;;;;;;;70.00;36.20;;;16.90;99.80;;;;;;6236696;23;20439;-84
2021/06/06 03:30:43;;;;;;;69.63;34.67;;;16.90;99.80;;;;;;6233431;22;20997;-83
2021/06/06 03:33:13;;;;;;;62.37;33.70;;;16.90;99.80;;;;;;6219006;23;20438;-83
2021/06/06 03:35:41;;;;;;;76.43;35.10;;;16.90;99.80;;;;;;6216335;23;20439;-83
2021/06/06 03:38:11;;;;;;;74.87;37.30;;;16.90;99.80;;;;;;6182292;23;20449;-83
2021/06/06 03:40:43;;;;;;;66.23;33.20;;;16.90;99.80;;;;;;6223616;22;20818;-83
2021/06/06 03:43:13;;;;;;;67.60;33.33;;;16.90;99.80;;;;;;6212205;23;20438;-83
2021/06/06 03:45:41;;;;;;;65.50;32.30;;;16.90;99.80;;;;;;6194730;23;20444;-83
2021/06/06 03:48:10;;;;;;;69.13;33.20;;;17.00;99.80;;;;;;6184586;23;20448;-83
2021/06/06 03:50:40;;;;;;;61.70;33.27;;;16.90;99.80;;;;;;6201984;22;20442;-83
2021/06/06 03:53:09;;;;;;;60.50;32.00;;;16.90;99.80;;;;;;6188198;22;20432;-83
2021/06/06 03:55:36;;;;;;;63.20;34.47;;;16.90;99.80;;;;;;6228743;23;20565;-83
2021/06/06 03:58:05;;;;;;;67.47;35.23;;;16.90;99.80;;;;;;6231891;23;20449;-84
2021/06/06 04:00:37;;;;;;;70.00;32.37;;;16.90;99.80;;;;;;6232828;22;20445;-83
2021/06/06 04:03:06;;;;;;;76.20;35.07;;;16.90;99.80;;;;;;6180297;23;20420;-83
2021/06/06 04:05:34;;;;;;;66.97;30.60;;;16.90;99.80;;;;;;6173764;23;21050;-83
2021/06/06 04:08:02;;;;;;;64.33;31.70;;;16.90;99.80;;;;;;6196157;23;20785;-85
2021/06/06 04:10:30;;;;;;;63.60;31.17;;;16.90;99.80;;;;;;6227822;22;21008;-85
2021/06/06 04:12:57;;;;;;;64.87;31.57;;;16.90;99.80;;;;;;6188298;23;20430;-85
2021/06/06 04:15:26;;;;;;;65.23;32.30;;;16.90;99.80;;;;;;6192376;23;20444;-85
2021/06/06 04:17:54;;;;;;;60.00;30.50;;;16.90;99.80;;;;;;6182302;23;20442;-85
2021/06/06 04:20:24;;;;;;;61.87;30.43;;;16.90;99.80;;;;;;6182762;22;20836;-85
2021/06/06 04:22:51;;;;;;;52.17;28.77;;;16.90;99.80;;;;;;6195685;23;20444;-84
2021/06/06 04:25:19;;;;;;;58.93;30.30;;;16.90;99.80;;;;;;6217044;23;20450;-86
2021/06/06 04:27:47;;;;;;;58.13;29.47;;;16.90;99.80;;;;;;6224764;23;20446;-86
2021/06/06 04:30:15;;;;;;;65.63;29.40;;;16.90;99.80;;;;;;6224486;22;20442;-85
2021/06/06 04:32:44;;;;;;;51.47;29.40;;;16.90;99.80;;;;;;6219602;23;20438;-85
2021/06/06 04:35:12;;;;;;;51.17;26.83;;;16.90;99.80;;;;;;6224805;23;20435;-85
2021/06/06 04:37:39;;;;;;;48.57;26.93;;;16.90;99.80;;;;;;6225995;23;20756;-85
2021/06/06 04:40:09;;;;;;;44.20;25.47;;;16.90;99.80;;;;;;6229607;22;20447;-86
2021/06/06 04:42:37;;;;;;;49.77;27.50;;;17.00;99.80;;;;;;6229703;23;20444;-85
2021/06/06 04:45:06;;;;;;;44.10;24.30;;;16.90;99.80;;;;;;6225179;23;20434;-85
2021/06/06 04:47:34;;;;;;;43.40;24.80;;;17.00;99.80;;;;;;6217786;23;20438;-85
2021/06/06 04:50:03;;;;;;;39.13;24.30;;;17.00;99.80;;;;;;6220614;22;20501;-85
2021/06/06 04:52:36;;;;;;;44.90;24.57;;;17.00;99.80;;;;;;6224637;23;20434;-85
2021/06/06 04:55:06;;;;;;;41.73;23.57;;;17.00;99.80;;;;;;6222592;23;20446;-85
2021/06/06 04:57:34;;;;;;;38.60;22.87;;;17.00;99.80;;;;;;6219721;23;20442;-85
2021/06/06 05:00:01;;;;;;;40.87;23.80;;;17.00;99.80;;;;;;6184960;23;20438;-85
2021/06/06 05:02:28;;;;;;;39.27;22.23;;;17.10;99.80;;;;;;6205922;22;20438;-85
2021/06/06 05:04:56;;;;;;;37.23;22.00;;;17.10;99.80;;;;;;6221784;23;20438;-85
2021/06/06 05:07:25;;;;;;;29.73;19.50;;;17.10;99.80;;;;;;6223220;23;20433;-85
2021/06/06 05:09:52;;;;;;;34.70;20.60;;;17.10;99.80;;;;;;6230551;22;20454;-85
2021/06/06 05:12:20;;;;;;;34.30;19.23;;;17.10;99.80;;;;;;6233858;23;22541;-85
2021/06/06 05:14:47;;;;;;;29.23;17.90;;;17.10;99.80;;;;;;6225722;23;20517;-85
2021/06/06 05:17:15;;;;;;;31.90;17.60;;;17.10;99.80;;;;;;6219395;23;20564;-85
2021/06/06 05:19:42;;;;;;;28.90;19.27;;;17.10;99.80;;;;;;6183322;23;21117;-85
2021/06/06 05:22:11;;;;;;;27.10;17.03;;;17.10;99.80;;;;;;6211274;23;20438;-85
2021/06/06 05:24:40;;;;;;;23.00;16.03;;;17.10;99.80;;;;;;6230199;23;20957;-85
2021/06/06 05:27:07;;;;;;;24.23;15.30;;;17.10;99.80;;;;;;6223125;23;20430;-85
2021/06/06 05:29:35;;;;;;;24.70;15.23;;;17.10;99.80;;;;;;6209125;22;20442;-85
2021/06/06 05:32:04;;;;;;;25.20;15.13;;;17.10;99.80;;;;;;6223643;23;20438;-85
2021/06/06 05:34:31;;;;;;;22.57;14.77;;;17.10;99.80;;;;;;6225907;23;20821;-85
2021/06/06 05:36:59;;;;;;;23.10;15.57;;;17.20;99.80;;;;;;6216410;23;20445;-85
2021/06/06 05:39:26;;;;;;;25.67;14.00;;;17.20;99.80;;;;;;6232948;22;20521;-85
2021/06/06 05:41:55;;;;;;;27.60;13.77;;;17.30;99.80;;;;;;6234941;23;20444;-85
2021/06/06 05:44:23;;;;;;;24.23;13.90;;;17.40;99.80;;;;;;6232372;23;20447;-85
2021/06/06 05:46:52;;;;;;;20.90;13.40;;;17.40;99.80;;;;;;6231451;23;20438;-85
2021/06/06 05:49:19;;;;;;;20.83;13.60;;;17.50;99.80;;;;;;6219682;22;20818;-85
2021/06/06 05:51:47;;;;;;;21.60;13.47;;;17.60;99.80;;;;;;6225661;23;20435;-85
2021/06/06 05:54:14;;;;;;;20.00;13.40;;;17.70;99.80;;;;;;6235574;23;20445;-86
2021/06/06 05:56:43;;;;;;;22.20;14.40;;;17.70;99.80;;;;;;6229557;23;20453;-86
2021/06/06 05:59:12;;;;;;;22.50;16.43;;;17.80;99.80;;;;;;6208972;23;20445;-86
2021/06/06 06:01:40;;;;;;;22.23;14.50;;;17.80;99.80;;;;;;6192989;22;20548;-86
2021/06/06 06:04:08;;;;;;;19.33;13.40;;;17.80;99.80;;;;;;6215716;23;20437;-86
2021/06/06 06:06:35;;;;;;;17.40;12.30;;;17.90;99.80;;;;;;6224475;23;20434;-86
2021/06/06 06:09:04;;;;;;;22.03;12.57;;;17.90;99.80;;;;;;6229951;23;20430;-86
2021/06/06 06:11:32;;;;;;;22.13;13.80;;;18.10;99.80;;;;;;6230355;22;20453;-86
2021/06/06 06:14:00;;;;;;;23.30;13.93;;;18.10;99.80;;;;;;6232797;23;20442;-87
2021/06/06 06:16:33;;;;;;;24.67;13.87;;;18.20;99.80;;;;;;6236643;23;20435;-85
2021/06/06 06:19:02;;;;;;;18.97;12.70;;;18.30;99.80;;;;;;6218338;23;20442;-86
2021/06/06 06:21:31;;;;;;;22.43;14.07;;;18.30;99.80;;;;;;6225697;22;20469;-86
2021/06/06 06:23:59;;;;;;;18.10;13.23;;;18.40;99.80;;;;;;6229305;23;20442;-87
2021/06/06 06:26:27;;;;;;;16.37;11.30;;;18.30;99.80;;;;;;6235240;23;20939;-86
2021/06/06 06:28:54;;;;;;;20.07;13.33;;;18.30;99.80;;;;;;6233018;23;20438;-87
2021/06/06 06:31:22;;;;;;;20.73;13.33;;;18.20;99.80;;;;;;6222032;22;20446;-84
2021/06/06 06:33:51;;;;;;;18.80;13.33;;;18.10;99.80;;;;;;6226672;23;20438;-86
2021/06/06 06:36:21;;;;;;;19.43;12.60;;;18.00;99.80;;;;;;6223317;23;20442;-88
2021/06/06 06:38:50;;;;;;;19.67;12.47;;;18.00;99.80;;;;;;6217883;23;20454;-88
2021/06/06 06:41:18;;;;;;;17.60;12.90;;;17.90;99.80;;;;;;6225440;22;20989;-87
2021/06/06 06:43:46;;;;;;;19.13;13.57;;;17.80;99.80;;;;;;6218433;23;20441;-88
2021/06/06 06:46:13;;;;;;;18.83;13.07;;;17.90;99.80;;;;;;6222997;23;20445;-87
2021/06/06 06:48:41;;;;;;;20.77;13.90;;;17.90;99.80;;;;;;6228702;23;20972;-87
2021/06/06 06:51:10;;;;;;;28.83;13.43;;;17.90;99.80;;;;;;6226335;22;20447;-87
2021/06/06 06:53:40;;;;;;;21.53;12.70;;;17.90;99.80;;;;;;6230726;23;20439;-88
2021/06/06 06:56:08;;;;;;;19.00;12.73;;;18.00;99.80;;;;;;6235295;23;20440;-88
2021/06/06 06:58:35;;;;;;;18.43;12.90;;;18.00;99.80;;;;;;6236105;23;20444;-87
2021/06/06 07:01:04;;;;;;;18.53;13.13;;;18.00;99.80;;;;;;6149032;23;20952;-86
2021/06/06 07:03:34;;;;;;;17.73;12.67;;;18.10;99.80;;;;;;6213415;22;20448;-87
2021/06/06 07:06:04;;;;;;;14.83;10.77;;;18.10;99.80;;;;;;6223034;23;20446;-87
2021/06/06 07:08:36;;;;;;;18.70;13.10;;;18.20;99.80;;;;;;6228222;23;20439;-86
2021/06/06 07:11:06;;;;;;;17.73;12.13;;;18.20;99.80;;;;;;6222757;22;20434;-87
2021/06/06 07:13:33;;;;;;;17.13;11.63;;;18.30;99.80;;;;;;6213758;23;20450;-86
2021/06/06 07:16:02;;;;;;;17.50;11.20;;;18.40;99.80;;;;;;6226303;23;20447;-86
2021/06/06 07:18:30;;;;;;;15.07;11.37;;;18.40;99.80;;;;;;6187952;23;20431;-85
2021/06/06 07:20:59;;;;;;;14.90;11.83;;;18.40;99.80;;;;;;6210057;22;20446;-85
2021/06/06 07:23:30;;;;;;;18.70;11.97;;;18.40;99.80;;;;;;6225702;23;20446;-85
2021/06/06 07:26:02;;;;;;;14.50;10.23;;;18.50;99.80;;;;;;6231526;23;20441;-86
2021/06/06 07:28:31;;;;;;;17.73;11.47;;;18.50;99.80;;;;;;6236268;23;20937;-84
2021/06/06 07:31:02;;;;;;;14.30;10.70;;;18.50;99.80;;;;;;6234657;22;20438;-85
2021/06/06 07:33:34;;;;;;;15.77;10.20;;;18.60;99.80;;;;;;6210867;23;20431;-86
2021/06/06 07:36:03;;;;;;;14.63;10.40;;;18.60;99.80;;;;;;6224080;23;20458;-85
2021/06/06 07:38:31;;;;;;;14.93;10.43;;;18.60;99.80;;;;;;6229279;23;20446;-86
2021/06/06 07:41:01;;;;;;;16.13;10.40;;;18.60;99.80;;;;;;6225875;22;20431;-86
2021/06/06 07:43:28;;;;;;;13.53;9.27;;;18.70;99.80;;;;;;6220736;23;20438;-86
2021/06/06 07:45:56;;;;;;;10.97;9.03;;;18.80;99.80;;;;;;6222452;23;21026;-86
2021/06/06 07:48:24;;;;;;;13.63;9.93;;;18.90;99.80;;;;;;6224841;23;20434;-86
2021/06/06 07:50:52;;;;;;;14.07;8.87;;;19.00;99.80;;;;;;6225219;22;20435;-87
2021/06/06 07:53:21;;;;;;;10.47;7.90;;;19.00;99.80;;;;;;6230028;23;20441;-85
2021/06/06 07:55:49;;;;;;;12.60;8.03;;;19.10;99.80;;;;;;6234113;23;20961;-86
2021/06/06 07:58:22;;;;;;;12.40;8.50;;;19.10;99.80;;;;;;6235734;23;20430;-85
2021/06/06 08:00:49;;;;;;;9.50;6.90;;;19.10;99.80;;;;;;6223213;22;20948;-85
2021/06/06 08:03:17;;;;;;;10.67;7.80;;;19.10;99.80;;;;;;6228082;23;20435;-85
2021/06/06 08:05:47;;;;;;;9.87;7.37;;;19.10;99.80;;;;;;6201157;23;20438;-85
2021/06/06 08:08:16;;;;;;;9.23;6.87;;;19.20;99.80;;;;;;6188545;23;20423;-84
2021/06/06 08:10:46;;;;;;;10.17;7.23;;;19.30;99.80;;;;;;6224584;22;20439;-84
2021/06/06 08:13:14;;;;;;;7.13;5.93;;;19.40;99.80;;;;;;6220950;23;20435;-84
2021/06/06 08:15:43;;;;;;;6.90;6.20;;;19.50;99.80;;;;;;6225748;23;20432;-85
2021/06/06 08:18:14;;;;;;;9.67;5.90;;;19.50;99.80;;;;;;6225358;23;20446;-85
2021/06/06 08:20:44;;;;;;;8.13;6.20;;;19.60;99.80;;;;;;6215713;22;20439;-86
2021/06/06 08:23:12;;;;;;;8.10;6.30;;;19.60;99.80;;;;;;6216813;23;20441;-86
2021/06/06 08:25:41;;;;;;;9.50;6.37;;;19.70;99.80;;;;;;6221773;23;20431;-85
2021/06/06 08:28:10;;;;;;;8.10;6.40;;;19.80;99.80;;;;;;6217473;23;20520;-85
2021/06/06 08:30:41;;;;;;;7.30;6.10;;;19.90;99.80;;;;;;6229587;22;20963;-81
2021/06/06 08:33:11;;;;;;;6.60;5.90;;;20.00;99.80;;;;;;6226406;23;20450;-85
2021/06/06 08:35:53;;;;;;;5.70;5.20;;;20.00;99.80;;;;;;6230492;23;20435;-82
2021/06/06 08:38:21;;;;;;;9.63;5.80;;;20.10;99.80;;;;;;6234672;23;20511;-82
2021/06/06 08:40:54;;;;;;;6.80;5.33;;;20.40;99.80;;;;;;6228669;22;20454;-83
2021/06/06 08:43:26;;;;;;;8.00;5.80;;;20.50;99.80;;;;;;6237495;23;20446;-83
2021/06/06 08:45:58;;;;;;;6.37;5.50;;;20.60;99.80;;;;;;6215113;23;20828;-87
2021/06/06 08:48:29;;;;;;;8.80;6.20;;;20.60;99.80;;;;;;6217778;23;20485;-85
2021/06/06 08:51:06;;;;;;;10.10;5.80;;;20.70;99.80;;;;;;6228320;22;20439;-89
2021/06/06 08:53:41;;;;;;;7.50;5.80;;;20.70;99.80;;;;;;6178151;23;20479;-85
2021/06/06 08:56:18;;;;;;;7.10;6.23;;;20.80;99.80;;;;;;6189493;23;21049;-85
2021/06/06 08:58:51;;;;;;;6.93;5.50;;;20.80;99.80;;;;;;6210949;23;20484;-85
2021/06/06 09:01:30;;;;;;;6.53;5.03;;;21.00;99.80;;;;;;6145700;22;20753;-85
2021/06/06 09:04:02;;;;;;;7.47;5.90;;;21.20;99.80;;;;;;6211978;22;20425;-85
2021/06/06 09:06:40;;;;;;;7.20;5.90;;;21.30;99.80;;;;;;6221443;23;20982;-84
2021/06/06 09:09:10;;;;;;;7.67;5.53;;;21.30;99.80;;;;;;6222826;23;20518;-84
2021/06/06 09:11:38;;;;;;;7.53;5.87;;;;;;;;;;6234322;22;20955;-85
2021/06/06 09:14:06;;;;;;;8.50;6.17;;;21.30;99.80;;;;;;6232803;23;20490;-85
2021/06/06 09:16:37;;;;;;;6.83;5.50;;;21.50;99.80;;;;;;6198435;23;20847;-85
2021/06/06 09:19:10;;;;;;;5.67;5.07;;;21.60;99.80;;;;;;6192789;23;20436;-86
2021/06/06 09:21:49;;;;;;;8.87;6.37;;;21.60;99.80;;;;;;6177231;23;20445;-86
2021/06/06 09:24:31;;;;;;;6.13;5.40;;;21.60;99.80;;;;;;6229019;23;20435;-91
2021/06/06 09:27:08;;;;;;;8.90;5.47;;;21.70;99.80;;;;;;6185661;23;20435;-83
2021/06/06 09:29:36;;;;;;;7.87;5.47;;;21.70;99.80;;;;;;6209807;23;20442;-83
2021/06/06 09:32:06;;;;;;;8.37;6.10;;;21.60;99.80;;;;;;6195589;23;20443;-83
2021/06/06 09:34:35;;;;;;;7.20;5.83;;;21.60;99.80;;;;;;6192381;23;20486;-82
2021/06/06 09:37:10;;;;;;;8.67;6.30;;;21.70;99.80;;;;;;6202250;23;20432;-82
2021/06/06 09:39:40;;;;;;;7.53;5.73;;;21.80;99.80;;;;;;6206887;22;20765;-82
2021/06/06 09:42:27;;;;;;;7.23;6.13;;;21.80;99.80;;;;;;6205309;22;20438;-83
2021/06/06 09:45:09;;;;;;;10.40;6.43;;;21.80;99.80;;;;;;6238466;23;20948;-83
2021/06/06 09:47:38;;;;;;;12.20;6.90;;;21.70;99.80;;;;;;6229599;23;20423;-83
2021/06/06 09:50:16;;;;;;;8.33;6.80;;;21.70;99.80;;;;;;6213561;22;20439;-83
2021/06/06 09:52:46;;;;;;;9.17;6.10;;;21.70;99.80;;;;;;6183977;23;20439;-83
2021/06/06 09:55:23;;;;;;;8.23;6.33;;;21.60;99.80;;;;;;6232534;23;20829;-85
2021/06/06 09:57:55;;;;;;;7.30;6.60;;;21.80;99.80;;;;;;6184771;23;20440;-83
2021/06/06 10:00:29;;;;;;;9.13;6.27;;;21.80;99.80;;;;;;6190862;22;20439;-83
2021/06/06 10:02:59;;;;;;;7.30;6.37;;;21.80;99.80;;;;;;6221579;22;20522;-82
2021/06/06 10:05:31;;;;;;;9.90;6.10;;;21.90;99.80;;;;;;6185577;23;20463;-83
2021/06/06 10:08:01;;;;;;;7.10;5.80;;;22.30;99.80;;;;;;6214450;23;20439;-84
2021/06/06 10:10:33;;;;;;;6.93;6.23;;;22.30;99.80;;;;;;6235173;22;20467;-87
2021/06/06 10:13:03;;;;;;;7.27;6.20;;;22.10;99.80;;;;;;6234739;23;20445;-89
2021/06/06 10:15:41;;;;;;;10.07;6.90;;;22.10;99.80;;;;;;6238677;23;20462;-85
2021/06/06 10:18:14;;;;;;;8.20;6.47;;;22.30;99.80;;;;;;6233653;23;20953;-89
2021/06/06 10:20:46;;;;;;;7.73;6.67;;;22.70;99.80;;;;;;6187917;23;20796;-86
2021/06/06 10:23:21;;;;;;;8.90;6.37;;;23.20;99.80;;;;;;6202253;22;20529;-87
2021/06/06 10:25:53;;;;;;;7.50;6.67;;;23.40;99.00;;;;;;6232302;23;21189;-87
2021/06/06 10:28:24;;;;;;;8.37;6.20;;;23.30;99.70;;;;;;6199146;23;20440;-85
2021/06/06 10:31:00;;;;;;;7.13;5.67;;;23.10;99.70;;;;;;6169568;22;20452;-88
2021/06/06 10:33:33;;;;;;;10.33;6.50;;;23.00;99.80;;;;;;6206864;22;20863;-89
2021/06/06 10:36:05;;;;;;;10.03;7.30;;;22.90;99.80;;;;;;6233996;23;20442;-91
2021/06/06 10:38:35;;;;;;;8.73;6.50;;;22.70;99.80;;;;;;6232013;23;20442;-90
2021/06/06 10:41:13;;;;;;;8.23;6.30;;;22.60;99.80;;;;;;6190906;22;20492;-89
2021/06/06 10:43:48;;;;;;;6.90;6.20;;;22.50;99.80;;;;;;6184570;22;20457;-90
2021/06/06 10:46:24;;;;;;;8.87;6.43;;;22.40;99.80;;;;;;6205748;22;20522;-89
2021/06/06 10:49:00;;;;;;;7.50;6.60;;;22.50;99.80;;;;;;6186256;22;21192;-84
2021/06/06 10:51:35;;;;;;;8.83;6.73;;;22.70;99.80;;;;;;6191271;22;20440;-84
2021/06/06 10:54:07;;;;;;;11.93;7.40;;;22.70;99.80;;;;;;6197905;22;20439;-84
2021/06/06 10:56:52;;;;;;;12.07;7.13;;;22.70;99.80;;;;;;6203392;22;20462;-84
2021/06/06 10:59:34;;;;;;;10.70;7.23;;;22.60;99.80;;;;;;6189229;22;20424;-83
2021/06/06 11:02:04;;;;;;;10.83;8.20;;;22.50;99.80;;;;;;6200536;22;21345;-83
2021/06/06 11:04:34;;;;;;;10.47;7.70;;;22.70;99.80;;;;;;6180565;22;20428;-86
2021/06/06 11:07:23;;;;;;;9.20;7.03;;;22.90;99.80;;;;;;6186779;22;20765;-85
2021/06/06 11:10:00;;;;;;;10.97;8.13;;;23.30;99.80;;;;;;6186534;22;20953;-84
2021/06/06 11:12:31;;;;;;;8.00;6.03;;;23.70;97.30;;;;;;6204480;22;20434;-81
2021/06/06 11:14:59;;;;;;;11.17;7.10;;;24.00;97.90;;;;;;6175599;22;20444;-82
2021/06/06 11:17:33;;;;;;;9.13;6.90;;;24.10;97.30;;;;;;6205026;22;20439;-81
2021/06/06 11:20:14;;;;;;;12.27;8.03;;;24.30;97.40;;;;;;6194477;22;21042;-81
2021/06/06 11:22:45;;;;;;;8.47;7.33;;;24.40;96.80;;;;;;6200074;23;20439;-81
2021/06/06 11:25:37;;;;;;;10.07;7.50;;;24.60;95.30;;;;;;6237651;22;21207;-85
2021/06/06 11:28:26;;;;;;;9.83;7.53;;;24.60;94.20;;;;;;6205241;23;20442;-84
2021/06/06 11:30:56;;;;;;;11.50;7.10;;;23.90;97.90;;;;;;6200696;23;20482;-84
2021/06/06 11:33:33;;;;;;;12.07;8.47;;;23.80;97.50;;;;;;6155572;23;20445;-81
2021/06/06 11:36:02;;;;;;;12.40;8.33;;;23.80;97.60;;;;;;6157169;23;20432;-82
2021/06/06 11:38:43;;;;;;;12.43;8.00;;;24.10;97.90;;;;;;6181348;23;20460;-84
2021/06/06 11:41:15;;;;;;;9.17;7.50;;;24.50;95.50;;;;;;6183688;23;20432;-84
2021/06/06 11:43:48;;;;;;;14.20;8.07;;;24.30;95.50;;;;;;6183631;23;20432;-82
2021/06/06 11:46:24;;;;;;;9.53;7.80;;;24.40;96.00;;;;;;6201386;22;20932;-82
2021/06/06 11:48:59;;;;;;;9.27;7.47;;;24.70;94.00;;;;;;6159654;23;21479;-84
2021/06/06 11:51:33;;;;;;;9.00;7.20;;;24.70;94.60;;;;;;6185129;22;20442;-82
2021/06/06 11:54:06;;;;;;;7.90;6.60;;;24.80;95.10;;;;;;6184925;23;20488;-82
2021/06/06 11:56:37;;;;;;;10.50;7.03;;;25.10;95.00;;;;;;6205996;23;20442;-84
2021/06/06 11:59:13;;;;;;;9.07;7.70;;;25.10;93.10;;;;;;6204042;23;20444;-82
2021/06/06 12:01:52;;;;;;;9.17;7.33;;;24.70;94.20;;;;;;6205347;23;20449;-83
2021/06/06 12:04:30;;;;;;;9.63;6.83;;;24.50;96.50;;;;;;6175376;23;20978;-83
2021/06/06 12:06:58;;;;;;;11.53;8.23;;;25.00;94.00;;;;;;6155701;23;20457;-83
2021/06/06 12:09:34;;;;;;;9.10;7.40;;;25.30;92.40;;;;;;6193117;23;20442;-84
2021/06/06 12:12:09;;;;;;;7.50;6.50;;;;;;;;;;6204684;23;21171;-83
2021/06/06 12:14:37;;;;;;;8.63;6.50;;;;;;;;;;6152545;23;20490;-83
2021/06/06 12:17:07;;;;;;;8.00;7.20;;;;;;;;;;6149958;23;20440;-82
2021/06/06 12:19:39;;;;;;;7.27;6.57;;;25.30;91.90;;;;;;6140880;23;20527;-83
2021/06/06 12:22:10;;;;;;;10.03;6.40;;;25.00;93.50;;;;;;6140969;23;21169;-83
2021/06/06 12:25:00;;;;;;;6.77;5.40;;;24.80;93.40;;;;;;6180176;23;20445;-82
2021/06/06 12:27:30;;;;;;;7.87;6.17;;;24.60;92.60;;;;;;6133823;23;20519;-83
2021/06/06 12:30:00;;;;;;;9.20;6.70;;;24.20;94.60;;;;;;6151594;23;20445;-83
2021/06/06 12:32:31;;;;;;;9.77;7.43;;;23.60;96.40;;;;;;6177372;23;20446;-83
2021/06/06 12:35:03;;;;;;;11.07;7.13;;;23.10;99.80;;;;;;6185948;23;20789;-82
2021/06/06 12:37:32;;;;;;;9.17;7.10;;;22.70;99.80;;;;;;6195050;23;20442;-82
2021/06/06 12:40:01;;;;;;;7.23;6.23;;;22.40;99.80;;;;;;6202897;23;20449;-82
2021/06/06 12:42:29;;;;;;;8.80;6.90;;;22.10;99.80;;;;;;6201763;23;20454;-83
2021/06/06 12:45:01;;;;;;;7.50;6.50;;;22.00;99.80;;;;;;6197656;23;20490;-82
2021/06/06 12:47:33;;;;;;;7.73;6.90;;;21.80;99.80;;;;;;6189298;23;20446;-83
2021/06/06 12:50:04;;;;;;;7.00;6.30;;;21.80;99.80;;;;;;6190229;23;20984;-83
2021/06/06 12:52:37;;;;;;;8.47;7.00;;;21.60;99.80;;;;;;6194608;23;20432;-83
2021/06/06 12:55:15;;;;;;;8.43;7.17;;;21.50;99.80;;;;;;6201690;23;20435;-82